Urmi, Russia
Current Conditions -  °F | °C
As of 10:30 PM on Wednesday 26 Nov 2014 (Local Time) from UHHH Reporting Station
Clear Clear  
Wind Chill: -4°   Ceiling: Unl
Heat Index:   Visibility: 6mi
Dew Point:   Wind: 4mph
Humidity: 85%   Direction: 10°N
Pressure: 29.94"   Gusts: NA
Location:  49.4°N, 133.23°E
Report Text: UHHH 261230Z 01002MPS CAVOK M15/M17 Q1014 NOSIG RMK QFE754/100523090060
Loading
Personal Weather Stations






























Interactive Weather Map New forecast layout! Learn more

10-Day Weather Forecast

Advertisements
Track Severe Weather on mobile